Time;durP1;ratioP1;P1;durP2;ratioP2;P2;SDS_P1;SDS_P2;PMS_P1;PMS_P2;Temp;Humidity;BMP_temperature;BMP_pressure;BME280_temperature;BME280_humidity;BME280_pressure;Samples;Min_cycle;Max_cycle;Signal;HPM_P1;HPM_P2
2021/09/19 00:00:08;;;;;;;18.83;15.63;;;17.00;99.90;;;;;;5076771;28;20446;-78
2021/09/19 00:02:34;;;;;;;20.85;15.45;;;17.00;99.90;;;;;;5076959;28;20503;-77
2021/09/19 00:05:00;;;;;;;19.15;15.77;;;17.00;99.90;;;;;;5073276;28;20040;-77
2021/09/19 00:07:25;;;;;;;18.52;14.55;;;17.00;99.90;;;;;;5079996;28;20016;-77
2021/09/19 00:09:51;;;;;;;17.25;14.35;;;17.00;99.90;;;;;;5079601;28;20024;-77
2021/09/19 00:12:17;;;;;;;16.35;14.25;;;17.00;99.90;;;;;;5080320;28;20020;-78
2021/09/19 00:14:43;;;;;;;16.15;13.57;;;17.00;99.90;;;;;;5076134;28;20385;-78
2021/09/19 00:17:08;;;;;;;15.52;13.93;;;17.00;99.90;;;;;;5074651;28;20020;-77
2021/09/19 00:19:35;;;;;;;20.05;15.90;;;16.90;99.90;;;;;;5077135;28;20032;-77
2021/09/19 00:22:00;;;;;;;22.75;17.13;;;16.80;99.90;;;;;;5076227;28;20027;-77
2021/09/19 00:24:26;;;;;;;16.85;14.65;;;16.80;99.90;;;;;;5077563;28;20094;-77
2021/09/19 00:26:52;;;;;;;19.00;15.60;;;16.70;99.90;;;;;;5071135;28;20040;-77
2021/09/19 00:29:17;;;;;;;16.60;13.85;;;16.70;99.90;;;;;;5072911;28;20027;-78
2021/09/19 00:31:43;;;;;;;18.50;14.27;;;16.70;99.90;;;;;;5076557;28;20025;-77
2021/09/19 00:34:09;;;;;;;18.85;14.50;;;16.60;99.90;;;;;;5077066;28;20044;-77
2021/09/19 00:36:34;;;;;;;17.77;15.25;;;16.70;99.90;;;;;;5076355;28;20028;-77
2021/09/19 00:39:00;;;;;;;15.98;13.95;;;16.70;99.90;;;;;;5074747;28;20052;-77
2021/09/19 00:41:26;;;;;;;15.32;12.77;;;16.70;99.90;;;;;;5079153;28;20040;-77
2021/09/19 00:43:51;;;;;;;19.23;15.18;;;16.70;99.90;;;;;;5079115;28;20058;-77
2021/09/19 00:46:17;;;;;;;18.67;14.10;;;16.70;99.90;;;;;;5076081;28;20024;-77
2021/09/19 00:48:43;;;;;;;18.27;13.32;;;16.70;99.90;;;;;;5077024;28;20032;-77
2021/09/19 00:51:08;;;;;;;16.70;14.75;;;16.70;99.90;;;;;;5075659;28;20016;-77
2021/09/19 00:53:37;;;;;;;18.02;15.57;;;16.70;99.90;;;;;;5074866;28;20392;-77
2021/09/19 00:56:05;;;;;;;15.10;13.50;;;16.70;99.90;;;;;;5068341;28;20017;-77
2021/09/19 00:58:32;;;;;;;16.17;13.25;;;16.60;99.90;;;;;;5073846;28;20033;-77
2021/09/19 01:00:59;;;;;;;19.40;15.57;;;16.50;99.90;;;;;;5075529;28;20480;-77
2021/09/19 01:03:26;;;;;;;15.93;12.95;;;16.50;99.90;;;;;;5076075;28;20032;-77
2021/09/19 01:05:53;;;;;;;17.33;14.38;;;16.40;99.90;;;;;;5072032;28;20409;-78
2021/09/19 01:08:19;;;;;;;13.43;11.95;;;16.30;99.90;;;;;;5071366;28;20036;-77
2021/09/19 01:10:45;;;;;;;16.60;13.98;;;16.20;99.90;;;;;;5076845;28;20016;-77
2021/09/19 01:13:13;;;;;;;16.73;14.30;;;16.30;99.90;;;;;;5076989;28;20028;-77
2021/09/19 01:15:40;;;;;;;16.55;13.95;;;16.30;99.90;;;;;;5077385;28;20086;-77
2021/09/19 01:18:07;;;;;;;16.63;14.35;;;16.30;99.90;;;;;;5074043;28;20023;-77
2021/09/19 01:20:33;;;;;;;16.65;14.70;;;16.30;99.90;;;;;;5080804;28;20059;-77
2021/09/19 01:23:03;;;;;;;16.85;14.82;;;16.30;99.90;;;;;;5072626;28;20027;-77
2021/09/19 01:25:30;;;;;;;15.57;13.98;;;16.30;99.90;;;;;;5078399;28;20103;-77
2021/09/19 01:27:55;;;;;;;17.80;13.70;;;16.30;99.90;;;;;;5078185;28;20056;-77
2021/09/19 01:30:22;;;;;;;14.88;13.20;;;16.30;99.90;;;;;;5078246;28;20056;-77
2021/09/19 01:32:47;;;;;;;17.02;14.30;;;16.30;99.90;;;;;;5074214;28;20036;-77
2021/09/19 01:35:13;;;;;;;17.50;15.05;;;16.30;99.90;;;;;;5062006;28;20040;-76
2021/09/19 01:37:39;;;;;;;16.10;13.57;;;16.30;99.90;;;;;;5069133;28;20540;-76
2021/09/19 01:40:06;;;;;;;15.50;13.07;;;16.30;99.90;;;;;;5089456;28;20024;-76
2021/09/19 01:42:32;;;;;;;15.77;12.75;;;16.20;99.90;;;;;;5079657;28;20056;-77
2021/09/19 01:44:58;;;;;;;14.85;12.90;;;16.20;99.90;;;;;;5072938;28;20056;-76
2021/09/19 01:47:24;;;;;;;14.60;12.18;;;16.10;99.90;;;;;;5070990;28;20017;-76
2021/09/19 01:49:51;;;;;;;14.90;12.73;;;16.10;99.90;;;;;;5061991;28;20365;-76
2021/09/19 01:52:18;;;;;;;15.07;12.27;;;16.00;99.90;;;;;;5070478;28;20017;-76
2021/09/19 01:54:44;;;;;;;12.82;11.20;;;16.10;99.90;;;;;;5074428;28;20393;-76
2021/09/19 01:57:10;;;;;;;16.42;12.32;;;16.10;99.90;;;;;;5070946;28;20484;-76
2021/09/19 01:59:35;;;;;;;13.40;12.00;;;16.00;99.90;;;;;;5070410;28;20146;-76
2021/09/19 02:02:02;;;;;;;13.10;11.80;;;16.00;99.90;;;;;;5070807;28;20605;-76
2021/09/19 02:04:27;;;;;;;13.27;11.35;;;16.00;99.90;;;;;;5067317;28;20031;-76
2021/09/19 02:06:53;;;;;;;14.13;12.55;;;15.90;99.90;;;;;;5063606;28;20032;-76
2021/09/19 02:09:19;;;;;;;14.52;11.55;;;15.90;99.90;;;;;;5069549;28;20066;-77
2021/09/19 02:11:45;;;;;;;15.30;12.32;;;15.90;99.90;;;;;;5060860;28;20106;-76
2021/09/19 02:14:10;;;;;;;15.85;12.98;;;15.70;99.90;;;;;;5075561;28;20634;-76
2021/09/19 02:16:36;;;;;;;16.00;13.77;;;15.80;99.90;;;;;;5067412;28;20028;-77
2021/09/19 02:19:02;;;;;;;17.35;13.50;;;15.80;99.90;;;;;;5068505;28;20104;-76
2021/09/19 02:21:27;;;;;;;15.07;12.65;;;15.80;99.90;;;;;;5067167;28;20012;-76
2021/09/19 02:23:53;;;;;;;16.70;13.52;;;15.80;99.90;;;;;;5069011;28;20036;-76
2021/09/19 02:26:20;;;;;;;16.20;12.48;;;15.80;99.90;;;;;;5069611;28;20034;-76
2021/09/19 02:28:45;;;;;;;15.30;12.98;;;15.80;99.90;;;;;;5071405;28;20036;-76
2021/09/19 02:31:11;;;;;;;14.43;12.55;;;15.80;99.90;;;;;;5065012;28;20025;-78
2021/09/19 02:33:37;;;;;;;12.90;11.52;;;15.70;99.90;;;;;;5062758;28;20037;-76
2021/09/19 02:36:03;;;;;;;16.10;12.15;;;15.70;99.90;;;;;;5067754;28;20031;-76
2021/09/19 02:38:29;;;;;;;14.07;12.23;;;15.80;99.90;;;;;;5070057;28;20032;-76
2021/09/19 02:40:55;;;;;;;18.15;14.27;;;15.70;99.90;;;;;;5066813;28;20082;-77
2021/09/19 02:43:22;;;;;;;13.35;11.95;;;15.70;99.90;;;;;;5066392;28;20477;-76
2021/09/19 02:45:49;;;;;;;15.07;12.52;;;15.70;99.90;;;;;;5068537;28;20020;-76
2021/09/19 02:48:15;;;;;;;14.00;12.50;;;15.70;99.90;;;;;;5070128;28;20054;-76
2021/09/19 02:50:40;;;;;;;18.45;14.35;;;15.70;99.90;;;;;;5070062;28;20056;-76
2021/09/19 02:53:06;;;;;;;16.42;12.93;;;15.70;99.90;;;;;;5064061;28;20439;-76
2021/09/19 02:55:32;;;;;;;16.83;12.57;;;15.60;99.90;;;;;;5068031;28;20058;-76
2021/09/19 02:57:57;;;;;;;17.15;13.93;;;15.60;99.90;;;;;;5064819;28;20044;-76
2021/09/19 03:00:23;;;;;;;18.02;14.43;;;15.70;99.90;;;;;;5068695;28;20107;-76
2021/09/19 03:02:50;;;;;;;16.67;14.43;;;15.70;99.90;;;;;;5067026;28;20029;-76
2021/09/19 03:05:15;;;;;;;19.83;13.85;;;15.70;99.90;;;;;;5072037;28;20117;-76
2021/09/19 03:07:42;;;;;;;16.02;14.18;;;15.70;99.90;;;;;;5066173;28;20548;-77
2021/09/19 03:10:09;;;;;;;16.05;14.40;;;15.70;99.90;;;;;;5066392;28;20035;-76
2021/09/19 03:12:35;;;;;;;15.55;13.63;;;15.70;99.90;;;;;;5060463;28;20036;-76
2021/09/19 03:15:01;;;;;;;18.35;14.40;;;15.60;99.90;;;;;;5071173;28;20409;-76
2021/09/19 03:17:27;;;;;;;18.98;13.48;;;15.70;99.90;;;;;;5068824;28;20552;-76
2021/09/19 03:19:52;;;;;;;15.07;13.45;;;15.60;99.90;;;;;;5068674;28;20143;-76
2021/09/19 03:22:18;;;;;;;16.88;13.30;;;15.60;99.90;;;;;;5071414;28;20067;-76
2021/09/19 03:24:44;;;;;;;16.63;12.98;;;15.50;99.90;;;;;;5070008;28;20025;-76
2021/09/19 03:27:09;;;;;;;15.10;12.75;;;15.40;99.90;;;;;;5072638;28;20411;-76
2021/09/19 03:29:35;;;;;;;19.90;12.68;;;15.50;99.90;;;;;;5067918;28;20029;-76
2021/09/19 03:32:00;;;;;;;17.75;13.90;;;15.50;99.90;;;;;;5063878;28;20482;-76
2021/09/19 03:34:26;;;;;;;15.07;12.15;;;15.50;99.90;;;;;;5062796;28;20480;-76
2021/09/19 03:36:52;;;;;;;15.90;14.20;;;15.40;99.90;;;;;;5074388;28;20028;-76
2021/09/19 03:39:17;;;;;;;13.98;12.35;;;15.40;99.90;;;;;;5067696;28;20029;-76
2021/09/19 03:41:43;;;;;;;18.63;14.25;;;15.40;99.90;;;;;;5068949;28;20028;-76
2021/09/19 03:44:10;;;;;;;14.00;12.50;;;15.40;99.90;;;;;;5066755;28;20036;-76
2021/09/19 03:46:39;;;;;;;14.32;12.20;;;15.30;99.90;;;;;;5068802;28;20035;-76
2021/09/19 03:49:04;;;;;;;14.93;12.93;;;15.20;99.90;;;;;;5069392;28;20125;-76
2021/09/19 03:51:30;;;;;;;14.90;11.82;;;15.20;99.90;;;;;;5078032;28;20515;-76
2021/09/19 03:53:56;;;;;;;15.82;13.57;;;15.20;99.90;;;;;;5066933;28;20033;-76
2021/09/19 03:56:22;;;;;;;15.30;12.57;;;15.20;99.90;;;;;;5067546;28;20031;-76
2021/09/19 03:58:48;;;;;;;15.80;12.60;;;15.20;99.90;;;;;;5067372;28;20477;-76
2021/09/19 04:01:15;;;;;;;14.93;11.82;;;15.20;99.90;;;;;;5066918;28;20032;-76
2021/09/19 04:03:40;;;;;;;16.88;12.65;;;15.30;99.90;;;;;;5071559;28;20044;-76
2021/09/19 04:06:06;;;;;;;14.00;11.13;;;15.30;99.90;;;;;;5066336;28;20051;-76
2021/09/19 04:08:32;;;;;;;17.27;11.75;;;15.30;99.90;;;;;;5069660;28;20033;-76
2021/09/19 04:10:57;;;;;;;17.50;13.85;;;15.20;99.90;;;;;;5065796;28;20074;-76
2021/09/19 04:13:23;;;;;;;14.15;11.55;;;15.20;99.90;;;;;;5068380;28;20033;-76
2021/09/19 04:15:49;;;;;;;17.08;12.32;;;15.20;99.90;;;;;;5064468;28;20025;-76
2021/09/19 04:18:16;;;;;;;13.63;11.73;;;15.10;99.90;;;;;;5073902;28;20107;-76
2021/09/19 04:20:42;;;;;;;14.77;12.05;;;15.10;99.90;;;;;;5073114;28;20476;-76
2021/09/19 04:23:08;;;;;;;14.90;12.45;;;15.10;99.90;;;;;;5071036;28;20489;-76
2021/09/19 04:25:34;;;;;;;14.95;11.38;;;15.10;99.90;;;;;;5067524;28;20060;-76
2021/09/19 04:27:59;;;;;;;13.27;11.75;;;15.20;99.90;;;;;;5068469;28;20055;-76
2021/09/19 04:30:25;;;;;;;21.25;14.48;;;15.20;99.90;;;;;;5068748;28;20091;-76
2021/09/19 04:32:50;;;;;;;14.93;11.55;;;15.00;99.90;;;;;;5066298;28;20404;-76
2021/09/19 04:35:16;;;;;;;15.45;11.93;;;15.00;99.90;;;;;;5063834;28;20572;-76
2021/09/19 04:37:42;;;;;;;15.23;12.57;;;15.00;99.90;;;;;;5077207;28;20058;-77
2021/09/19 04:40:08;;;;;;;16.67;12.63;;;15.00;99.90;;;;;;5067463;28;20499;-77
2021/09/19 04:42:34;;;;;;;17.00;12.75;;;15.10;99.90;;;;;;5071190;28;20427;-76
2021/09/19 04:45:00;;;;;;;12.18;10.90;;;15.00;99.90;;;;;;5068622;28;20025;-77
2021/09/19 04:47:25;;;;;;;16.27;12.98;;;15.00;99.90;;;;;;5065233;28;20442;-76
2021/09/19 04:49:51;;;;;;;20.73;15.25;;;15.00;99.90;;;;;;5075172;28;20032;-76
2021/09/19 04:52:17;;;;;;;13.50;12.10;;;14.90;99.90;;;;;;5069550;28;20031;-76
2021/09/19 04:54:42;;;;;;;12.75;11.48;;;14.90;99.90;;;;;;5066123;28;20037;-76
2021/09/19 04:57:08;;;;;;;15.02;11.98;;;14.90;99.90;;;;;;5068294;28;20481;-76
2021/09/19 04:59:35;;;;;;;12.27;10.75;;;14.90;99.90;;;;;;5069571;28;20366;-76
2021/09/19 05:02:02;;;;;;;14.40;11.50;;;15.00;99.90;;;;;;5074186;28;20451;-76
2021/09/19 05:04:27;;;;;;;18.50;13.32;;;15.00;99.90;;;;;;5068075;28;20036;-76
2021/09/19 05:06:53;;;;;;;14.43;11.30;;;15.00;99.90;;;;;;5069941;28;20096;-76
2021/09/19 05:09:19;;;;;;;17.20;11.10;;;15.00;99.90;;;;;;5073761;28;20025;-76
2021/09/19 05:11:44;;;;;;;13.10;11.30;;;15.00;99.90;;;;;;5069310;28;20018;-76
2021/09/19 05:14:10;;;;;;;12.60;11.23;;;15.00;99.90;;;;;;5070679;28;20040;-76
2021/09/19 05:16:35;;;;;;;13.00;11.55;;;15.00;99.90;;;;;;5070813;28;20025;-76
2021/09/19 05:19:01;;;;;;;12.43;10.88;;;14.90;99.90;;;;;;5067309;28;20118;-76
2021/09/19 05:21:27;;;;;;;11.50;9.77;;;14.90;99.90;;;;;;5065078;28;20032;-76
2021/09/19 05:23:53;;;;;;;11.85;10.02;;;14.90;99.90;;;;;;5069157;28;20024;-76
2021/09/19 05:26:18;;;;;;;13.73;10.35;;;14.90;99.90;;;;;;5063635;28;20039;-76
2021/09/19 05:28:44;;;;;;;10.55;9.25;;;14.80;99.90;;;;;;5073550;28;20025;-76
2021/09/19 05:31:12;;;;;;;14.38;10.05;;;14.80;99.90;;;;;;5067906;28;20021;-76
2021/09/19 05:33:38;;;;;;;16.35;10.93;;;14.70;99.90;;;;;;5069735;28;20035;-76
2021/09/19 05:36:04;;;;;;;13.32;10.13;;;14.60;99.90;;;;;;5066779;28;20032;-76
2021/09/19 05:38:29;;;;;;;13.02;10.75;;;14.60;99.90;;;;;;5067678;28;20055;-76
2021/09/19 05:40:55;;;;;;;12.20;9.75;;;14.60;99.90;;;;;;5066886;28;20017;-76
2021/09/19 05:43:21;;;;;;;12.88;10.68;;;14.70;99.90;;;;;;5074947;28;20078;-76
2021/09/19 05:45:47;;;;;;;11.65;9.40;;;14.70;99.90;;;;;;5068893;28;20384;-76
2021/09/19 05:48:12;;;;;;;15.80;10.77;;;14.80;99.90;;;;;;5066650;28;20024;-76
2021/09/19 05:50:38;;;;;;;11.38;10.18;;;14.80;99.90;;;;;;5075347;28;20032;-76
2021/09/19 05:53:04;;;;;;;14.05;10.30;;;14.80;99.90;;;;;;5065712;28;20551;-76
2021/09/19 05:55:29;;;;;;;16.67;12.20;;;14.80;99.90;;;;;;5072234;28;20041;-76
2021/09/19 05:57:55;;;;;;;13.02;10.50;;;14.80;99.90;;;;;;5069500;28;20078;-76
2021/09/19 06:00:21;;;;;;;11.90;9.20;;;14.80;99.90;;;;;;5064669;28;20033;-76
2021/09/19 06:02:46;;;;;;;12.70;9.73;;;14.80;99.90;;;;;;5070912;28;20065;-76
2021/09/19 06:05:12;;;;;;;11.75;9.20;;;14.80;99.90;;;;;;5068552;28;20029;-76
2021/09/19 06:07:38;;;;;;;13.70;10.20;;;14.80;99.90;;;;;;5072388;28;20033;-76
2021/09/19 06:10:06;;;;;;;10.98;9.75;;;14.80;99.90;;;;;;5064069;28;20028;-76
2021/09/19 06:12:31;;;;;;;12.40;10.35;;;14.80;99.90;;;;;;5069005;28;20024;-76
2021/09/19 06:14:57;;;;;;;13.38;10.15;;;14.80;99.90;;;;;;5065946;28;20400;-76
2021/09/19 06:17:23;;;;;;;12.60;9.73;;;14.90;99.90;;;;;;5072598;28;20491;-76
2021/09/19 06:19:50;;;;;;;10.60;9.40;;;14.80;99.90;;;;;;5066642;28;20039;-76
2021/09/19 06:22:16;;;;;;;13.43;10.88;;;14.90;99.90;;;;;;5065921;28;20017;-76
2021/09/19 06:24:42;;;;;;;12.45;9.55;;;14.90;99.90;;;;;;5062304;28;20051;-76
2021/09/19 06:27:08;;;;;;;10.25;9.25;;;14.90;99.90;;;;;;5062312;28;20504;-77
2021/09/19 06:29:33;;;;;;;13.35;9.30;;;14.90;99.90;;;;;;5073758;28;20115;-76
2021/09/19 06:31:59;;;;;;;10.32;8.63;;;14.90;99.90;;;;;;5069050;28;20445;-77
2021/09/19 06:34:25;;;;;;;10.80;9.05;;;14.80;99.90;;;;;;5067677;28;20085;-76
2021/09/19 06:36:51;;;;;;;11.48;8.18;;;14.90;99.90;;;;;;5081890;28;20077;-76
2021/09/19 06:39:16;;;;;;;11.05;9.48;;;15.00;99.90;;;;;;5067883;28;20472;-76
2021/09/19 06:41:42;;;;;;;14.82;10.15;;;15.00;99.90;;;;;;5065649;28;20492;-76
2021/09/19 06:44:08;;;;;;;9.20;8.20;;;15.00;99.90;;;;;;5070461;28;20473;-76
2021/09/19 06:46:33;;;;;;;10.52;9.00;;;15.10;99.90;;;;;;5074954;28;20020;-76
2021/09/19 06:49:01;;;;;;;11.55;9.50;;;15.10;99.90;;;;;;5077336;28;20112;-76
2021/09/19 06:51:27;;;;;;;12.63;9.65;;;15.10;99.90;;;;;;5068596;28;20012;-76
2021/09/19 06:53:53;;;;;;;12.35;9.15;;;15.10;99.90;;;;;;5076148;28;20468;-76
2021/09/19 06:56:21;;;;;;;12.45;10.65;;;15.20;99.90;;;;;;5076204;28;20098;-76
2021/09/19 06:58:47;;;;;;;10.75;8.85;;;15.10;99.90;;;;;;5076862;28;20392;-76
2021/09/19 07:01:14;;;;;;;10.55;8.80;;;15.20;99.90;;;;;;5069488;28;20111;-75
2021/09/19 07:03:41;;;;;;;11.20;8.35;;;15.20;99.90;;;;;;5070519;28;20028;-76
2021/09/19 07:06:06;;;;;;;11.25;9.13;;;15.20;99.90;;;;;;5071391;28;20027;-75
2021/09/19 07:08:32;;;;;;;9.23;8.25;;;15.30;99.90;;;;;;5070788;28;20036;-76
2021/09/19 07:10:57;;;;;;;9.95;8.80;;;15.30;99.90;;;;;;5073870;28;20024;-76
2021/09/19 07:13:23;;;;;;;13.25;9.68;;;15.30;99.90;;;;;;5078817;28;20123;-76
2021/09/19 07:15:52;;;;;;;8.88;7.97;;;15.40;99.90;;;;;;5075128;28;20508;-75
2021/09/19 07:18:20;;;;;;;11.73;9.55;;;15.40;99.90;;;;;;5069861;28;20124;-76
2021/09/19 07:20:45;;;;;;;11.40;9.98;;;15.30;99.90;;;;;;5076337;28;20074;-75
2021/09/19 07:23:11;;;;;;;9.00;7.50;;;15.40;99.90;;;;;;5073648;28;20016;-76
2021/09/19 07:25:37;;;;;;;17.27;9.65;;;15.40;99.90;;;;;;5077081;28;20032;-75
2021/09/19 07:28:04;;;;;;;14.00;9.30;;;15.40;99.90;;;;;;5079114;28;20581;-75
2021/09/19 07:30:30;;;;;;;11.90;7.63;;;15.40;99.90;;;;;;5078945;28;20404;-75
2021/09/19 07:32:57;;;;;;;11.88;7.50;;;15.40;99.90;;;;;;5076538;28;20013;-75
2021/09/19 07:35:23;;;;;;;9.90;8.82;;;15.40;99.90;;;;;;5076629;28;20081;-75
2021/09/19 07:37:49;;;;;;;16.10;10.05;;;15.50;99.90;;;;;;5073829;28;20099;-75
2021/09/19 07:40:15;;;;;;;9.93;7.70;;;15.60;99.90;;;;;;5081401;28;20033;-75
2021/09/19 07:42:41;;;;;;;11.05;7.95;;;15.60;99.90;;;;;;5073161;28;20017;-75
2021/09/19 07:45:08;;;;;;;9.35;7.38;;;15.60;99.90;;;;;;5076129;28;20045;-75
2021/09/19 07:47:34;;;;;;;10.85;9.05;;;15.70;99.90;;;;;;5079539;28;20377;-75
2021/09/19 07:49:59;;;;;;;10.02;7.07;;;15.70;99.90;;;;;;5082690;28;20023;-73
2021/09/19 07:52:26;;;;;;;9.38;6.32;;;15.80;99.90;;;;;;5077098;28;20020;-74
2021/09/19 07:54:54;;;;;;;8.45;7.00;;;15.90;99.90;;;;;;5051462;28;20078;-75
2021/09/19 07:57:23;;;;;;;8.38;5.90;;;16.00;99.90;;;;;;5074526;28;20031;-74
2021/09/19 07:59:50;;;;;;;8.52;6.50;;;16.00;99.90;;;;;;5075073;28;20033;-75
2021/09/19 08:02:16;;;;;;;7.20;5.88;;;16.10;99.90;;;;;;5079212;28;20400;-75
2021/09/19 08:04:42;;;;;;;7.68;6.32;;;16.10;99.90;;;;;;5076680;28;20029;-74
2021/09/19 08:07:07;;;;;;;7.50;5.50;;;16.10;99.90;;;;;;5076104;28;20081;-75
2021/09/19 08:09:33;;;;;;;6.18;5.53;;;16.30;99.90;;;;;;5076929;28;20070;-75
2021/09/19 08:11:59;;;;;;;8.35;6.30;;;16.30;99.90;;;;;;5078583;28;20443;-75
2021/09/19 08:14:25;;;;;;;7.30;6.18;;;16.30;99.90;;;;;;5074023;28;20044;-75
2021/09/19 08:16:50;;;;;;;7.70;6.75;;;16.40;99.90;;;;;;5079426;28;20103;-75
2021/09/19 08:19:18;;;;;;;7.13;6.43;;;16.40;99.90;;;;;;5077299;28;20032;-75
2021/09/19 08:21:44;;;;;;;9.20;5.80;;;16.50;99.90;;;;;;5080294;28;20025;-75
2021/09/19 08:24:11;;;;;;;8.13;6.22;;;16.50;99.90;;;;;;5072303;28;20400;-74
2021/09/19 08:26:38;;;;;;;5.70;5.20;;;16.60;99.90;;;;;;5076276;28;20036;-74
2021/09/19 08:29:05;;;;;;;7.10;6.22;;;16.50;99.90;;;;;;5068693;28;20024;-75
2021/09/19 08:31:31;;;;;;;6.72;5.80;;;16.60;99.90;;;;;;5075661;28;20075;-74
2021/09/19 08:33:58;;;;;;;7.32;4.90;;;16.60;99.90;;;;;;5079811;28;20044;-75
2021/09/19 08:36:25;;;;;;;7.53;5.68;;;16.70;99.90;;;;;;5074880;28;20095;-75
2021/09/19 08:38:51;;;;;;;7.22;4.97;;;16.70;99.90;;;;;;5083062;28;20407;-74
2021/09/19 08:41:18;;;;;;;6.50;5.90;;;16.80;99.90;;;;;;5077430;28;20052;-75
2021/09/19 08:43:45;;;;;;;6.80;5.43;;;16.90;99.90;;;;;;5081846;28;20481;-75
2021/09/19 08:46:15;;;;;;;5.97;5.38;;;17.00;99.90;;;;;;5073674;28;20047;-75
2021/09/19 08:48:41;;;;;;;6.45;5.38;;;17.00;99.90;;;;;;5081058;28;20107;-75
2021/09/19 08:51:07;;;;;;;8.63;5.00;;;17.20;99.90;;;;;;5083084;28;20031;-74
2021/09/19 08:53:33;;;;;;;8.45;5.15;;;17.20;99.90;;;;;;5079032;28;20033;-76
2021/09/19 08:55:59;;;;;;;6.28;4.70;;;17.30;99.90;;;;;;5075876;28;20368;-75
2021/09/19 08:58:25;;;;;;;8.30;5.40;;;17.30;99.90;;;;;;5076644;28;20488;-75
2021/09/19 09:00:52;;;;;;;6.10;5.50;;;17.40;99.90;;;;;;5077125;28;20013;-75
2021/09/19 09:03:25;;;;;;;5.05;4.55;;;17.50;99.90;;;;;;5081258;28;20110;-75
2021/09/19 09:05:55;;;;;;;8.68;5.30;;;17.70;99.90;;;;;;5067388;28;20542;-75
2021/09/19 09:08:21;;;;;;;5.22;4.15;;;17.80;99.90;;;;;;5073838;28;20017;-75
2021/09/19 09:10:49;;;;;;;9.80;5.40;;;17.90;99.90;;;;;;5067664;28;20032;-75
2021/09/19 09:13:23;;;;;;;8.57;4.47;;;18.00;99.90;;;;;;5074813;28;20607;-76
2021/09/19 09:15:52;;;;;;;5.97;4.40;;;18.20;99.90;;;;;;5073188;28;20108;-75
2021/09/19 09:18:32;;;;;;;4.97;4.00;;;18.30;99.90;;;;;;5073767;28;20020;-76
2021/09/19 09:21:12;;;;;;;5.82;4.20;;;18.40;99.90;;;;;;5077275;28;20067;-75
2021/09/19 09:23:48;;;;;;;5.40;3.17;;;18.60;99.90;;;;;;5075332;28;20025;-76
2021/09/19 09:26:24;;;;;;;6.07;3.42;;;18.60;99.90;;;;;;5074993;28;20028;-76
2021/09/19 09:28:57;;;;;;;4.20;3.28;;;18.60;99.90;;;;;;5073987;28;20029;-76
2021/09/19 09:31:23;;;;;;;6.15;3.30;;;18.60;99.90;;;;;;5070017;28;20029;-76
2021/09/19 09:34:10;;;;;;;3.42;2.95;;;18.80;99.90;;;;;;5062955;28;20025;-77
2021/09/19 09:36:41;;;;;;;5.13;4.15;;;18.90;99.90;;;;;;5070316;28;20033;-78
2021/09/19 09:39:33;;;;;;;5.63;3.75;;;18.90;99.90;;;;;;5074791;28;20531;-77
2021/09/19 09:42:03;;;;;;;5.47;2.97;;;18.90;99.90;;;;;;5066590;28;20128;-77
2021/09/19 09:44:31;;;;;;;5.72;3.10;;;19.20;99.90;;;;;;5078536;28;20279;-77
2021/09/19 09:46:59;;;;;;;4.68;3.25;;;19.20;99.90;;;;;;5076758;28;20091;-77
2021/09/19 09:49:37;;;;;;;3.08;2.78;;;19.10;99.90;;;;;;5070574;28;20048;-77
2021/09/19 09:52:31;;;;;;;6.95;3.40;;;19.20;99.90;;;;;;5069499;28;20043;-76
2021/09/19 09:54:57;;;;;;;5.15;2.72;;;19.10;99.90;;;;;;5067454;28;20040;-78
2021/09/19 09:57:36;;;;;;;3.25;2.55;;;19.30;99.90;;;;;;5069752;28;20024;-76
2021/09/19 10:00:06;;;;;;;2.95;2.50;;;19.40;99.90;;;;;;5065413;28;20021;-79
2021/09/19 10:02:33;;;;;;;4.78;2.70;;;19.60;99.90;;;;;;5066212;28;20052;-76
2021/09/19 10:04:59;;;;;;;4.38;2.60;;;19.90;99.90;;;;;;5066124;28;20107;-77
2021/09/19 10:07:25;;;;;;;6.47;2.85;;;20.00;99.90;;;;;;5071116;28;20024;-77
2021/09/19 10:09:51;;;;;;;5.30;2.17;;;20.20;99.90;;;;;;5070423;28;20023;-77
2021/09/19 10:12:20;;;;;;;3.78;2.47;;;20.40;99.90;;;;;;5069737;28;20036;-76
2021/09/19 10:14:51;;;;;;;4.10;2.28;;;20.50;99.90;;;;;;5069020;28;20033;-76
2021/09/19 10:17:21;;;;;;;3.05;2.75;;;20.60;99.90;;;;;;5072784;28;20107;-77
2021/09/19 10:19:47;;;;;;;3.70;2.35;;;20.70;99.90;;;;;;5073738;28;20484;-76
2021/09/19 10:22:50;;;;;;;3.08;2.50;;;20.80;99.90;;;;;;5072522;28;20071;-77
2021/09/19 10:25:37;;;;;;;2.50;2.30;;;21.00;99.90;;;;;;5058926;28;20047;-77
2021/09/19 10:28:25;;;;;;;2.45;2.05;;;21.20;99.90;;;;;;5076349;28;20032;-77
2021/09/19 10:31:09;;;;;;;5.10;2.10;;;21.30;99.90;;;;;;5075505;28;20085;-77
2021/09/19 10:33:36;;;;;;;2.67;1.92;;;21.30;99.90;;;;;;5072227;28;20047;-78
2021/09/19 10:36:08;;;;;;;3.28;2.97;;;21.30;99.90;;;;;;5069535;28;20025;-77
2021/09/19 10:38:36;;;;;;;3.00;2.57;;;21.30;99.90;;;;;;5077976;28;20055;-76
2021/09/19 10:41:22;;;;;;;3.53;2.45;;;21.30;99.90;;;;;;5069556;28;20012;-75
2021/09/19 10:43:49;;;;;;;2.58;2.25;;;21.20;99.90;;;;;;5069001;28;20059;-78
2021/09/19 10:46:36;;;;;;;3.15;2.22;;;21.20;99.90;;;;;;5069210;28;20023;-75
2021/09/19 10:49:18;;;;;;;3.17;2.72;;;21.10;99.90;;;;;;5068095;28;20444;-77
2021/09/19 10:52:02;;;;;;;4.32;2.30;;;21.10;99.90;;;;;;5066576;28;20032;-76
2021/09/19 10:54:48;;;;;;;3.13;2.75;;;21.00;99.90;;;;;;5069728;28;20055;-76
2021/09/19 10:57:22;;;;;;;2.90;2.00;;;21.00;99.90;;;;;;5071522;28;20025;-76
2021/09/19 11:00:15;;;;;;;3.03;2.30;;;21.00;99.90;;;;;;5065389;28;20108;-75
2021/09/19 11:02:42;;;;;;;5.45;2.15;;;21.00;99.90;;;;;;5063349;28;20528;-76
2021/09/19 11:05:29;;;;;;;2.38;1.83;;;21.00;99.90;;;;;;5074802;28;20137;-76
2021/09/19 11:08:09;;;;;;;2.28;1.60;;;21.00;99.90;;;;;;5076057;28;20042;-77
2021/09/19 11:10:50;;;;;;;3.42;1.38;;;21.10;99.90;;;;;;5072672;28;20438;-76
2021/09/19 11:13:20;;;;;;;1.52;1.42;;;21.20;99.90;;;;;;5077253;28;20033;-76
2021/09/19 11:16:01;;;;;;;1.92;1.15;;;21.30;99.90;;;;;;5073216;28;20096;-77
2021/09/19 11:18:28;;;;;;;1.42;1.30;;;21.40;99.90;;;;;;5074939;28;20465;-78
2021/09/19 11:21:14;;;;;;;1.73;1.52;;;21.50;99.90;;;;;;5076433;28;20024;-75
2021/09/19 11:24:03;;;;;;;3.92;1.77;;;21.80;99.90;;;;;;5073016;28;20028;-76
2021/09/19 11:26:31;;;;;;;4.47;1.45;;;22.10;99.90;;;;;;5073019;28;20024;-77
2021/09/19 11:28:59;;;;;;;3.85;1.42;;;22.10;99.90;;;;;;5077821;28;20487;-77
2021/09/19 11:31:26;;;;;;;1.95;1.60;;;22.10;99.90;;;;;;5072438;28;20453;-77
2021/09/19 11:33:52;;;;;;;1.20;1.10;;;22.10;99.90;;;;;;5070257;28;20037;-77
2021/09/19 11:36:20;;;;;;;2.28;1.20;;;22.20;99.90;;;;;;5075901;28;20468;-77
2021/09/19 11:38:51;;;;;;;1.52;1.42;;;22.30;99.90;;;;;;5080418;28;20035;-76
2021/09/19 11:41:19;;;;;;;2.45;1.30;;;22.40;99.90;;;;;;5076984;28;20482;-74
2021/09/19 11:43:47;;;;;;;1.70;1.20;;;22.50;99.90;;;;;;5079625;28;20013;-75
2021/09/19 11:46:17;;;;;;;1.80;1.65;;;22.60;99.90;;;;;;5070108;28;20124;-76
2021/09/19 11:48:44;;;;;;;2.95;1.17;;;22.60;99.90;;;;;;5071902;28;20031;-75
2021/09/19 11:51:16;;;;;;;2.33;1.25;;;22.70;99.90;;;;;;5074395;28;20056;-76
2021/09/19 11:53:43;;;;;;;1.40;1.10;;;22.70;99.90;;;;;;5071688;28;20186;-77
2021/09/19 11:56:10;;;;;;;2.17;1.25;;;22.70;99.90;;;;;;5072351;28;20099;-77
2021/09/19 11:58:36;;;;;;;3.88;1.80;;;22.70;99.90;;;;;;5066140;28;20048;-75
2021/09/19 12:01:03;;;;;;;2.20;0.90;;;22.80;99.90;;;;;;5066898;28;20056;-75
2021/09/19 12:03:29;;;;;;;1.92;1.10;;;22.70;99.90;;;;;;5067084;28;20473;-74
2021/09/19 12:05:58;;;;;;;1.23;0.80;;;22.70;99.90;;;;;;5066058;28;20029;-74
2021/09/19 12:08:26;;;;;;;1.25;0.90;;;22.70;99.90;;;;;;5066026;28;20075;-74
2021/09/19 12:10:56;;;;;;;2.08;0.85;;;22.90;99.90;;;;;;5076219;28;20024;-74
2021/09/19 12:13:24;;;;;;;1.80;1.00;;;22.90;99.90;;;;;;5072309;28;20035;-75
2021/09/19 12:16:06;;;;;;;0.80;0.80;;;22.80;99.90;;;;;;5071410;28;20377;-76
2021/09/19 12:18:38;;;;;;;1.92;0.80;;;22.90;99.90;;;;;;5074466;28;20032;-75
2021/09/19 12:21:05;;;;;;;2.40;1.17;;;23.10;99.90;;;;;;5077347;28;20520;-77
2021/09/19 12:23:44;;;;;;;1.73;1.40;;;23.00;99.90;;;;;;5070132;28;20093;-79
2021/09/19 12:26:22;;;;;;;1.00;1.00;;;23.10;99.90;;;;;;5067882;28;20032;-81
2021/09/19 12:28:53;;;;;;;1.40;1.30;;;23.00;99.90;;;;;;5067723;28;20411;-79
2021/09/19 12:31:51;;;;;;;1.42;1.30;;;23.00;99.90;;;;;;5069105;28;20021;-79
2021/09/19 12:34:22;;;;;;;2.42;1.58;;;23.10;99.90;;;;;;5027007;28;20045;-78
2021/09/19 12:36:52;;;;;;;2.17;1.30;;;23.20;99.90;;;;;;5077292;28;20031;-77
2021/09/19 12:39:33;;;;;;;2.25;1.70;;;23.20;99.90;;;;;;5072313;28;20057;-78